Map

Track Data

SID SEASON NUMBER BASIN SUBBASIN NAME ISO_TIME NATURE LAT LON WMO_WIND WMO_PRES WMO_AGENCY TRACK_TYPE DIST2LAND LANDFALL IFLAG USA_AGENCY USA_ATCF_ID USA_LAT USA_LON USA_RECORD USA_STATUS USA_WIND USA_PRES USA_SSHS USA_R34_NE USA_R34_SE USA_R34_SW USA_R34_NW USA_R50_NE USA_R50_SE USA_R50_SW USA_R50_NW USA_R64_NE USA_R64_SE USA_R64_SW USA_R64_NW USA_POCI USA_ROCI USA_RMW USA_EYE TOKYO_LAT TOKYO_LON TOKYO_GRADE TOKYO_WIND TOKYO_PRES TOKYO_R50_DIR TOKYO_R50_LONG TOKYO_R50_SHORT TOKYO_R30_DIR TOKYO_R30_LONG TOKYO_R30_SHORT TOKYO_LAND CMA_LAT CMA_LON CMA_CAT CMA_WIND CMA_PRES HKO_LAT HKO_LON HKO_CAT HKO_WIND HKO_PRES NEWDELHI_LAT NEWDELHI_LON NEWDELHI_GRADE NEWDELHI_WIND NEWDELHI_PRES NEWDELHI_CI NEWDELHI_DP NEWDELHI_POCI REUNION_LAT REUNION_LON REUNION_TYPE REUNION_WIND REUNION_PRES REUNION_TNUM REUNION_CI REUNION_RMW REUNION_R34_NE REUNION_R34_SE REUNION_R34_SW REUNION_R34_NW REUNION_R50_NE REUNION_R50_SE REUNION_R50_SW REUNION_R50_NW REUNION_R64_NE REUNION_R64_SE REUNION_R64_SW REUNION_R64_NW BOM_LAT BOM_LON BOM_TYPE BOM_WIND BOM_PRES BOM_TNUM BOM_CI BOM_RMW BOM_R34_NE BOM_R34_SE BOM_R34_SW BOM_R34_NW BOM_R50_NE BOM_R50_SE BOM_R50_SW BOM_R50_NW BOM_R64_NE BOM_R64_SE BOM_R64_SW BOM_R64_NW BOM_ROCI BOM_POCI BOM_EYE BOM_POS_METHOD BOM_PRES_METHOD NADI_LAT NADI_LON NADI_CAT NADI_WIND NADI_PRES WELLINGTON_LAT WELLINGTON_LON WELLINGTON_WIND WELLINGTON_PRES DS824_LAT DS824_LON DS824_STAGE DS824_WIND DS824_PRES TD9636_LAT TD9636_LON TD9636_STAGE TD9636_WIND TD9636_PRES TD9635_LAT TD9635_LON TD9635_WIND TD9635_PRES TD9635_ROCI NEUMANN_LAT NEUMANN_LON NEUMANN_CLASS NEUMANN_WIND NEUMANN_PRES MLC_LAT MLC_LON MLC_CLASS MLC_WIND MLC_PRES USA_GUST BOM_GUST BOM_GUST_PER REUNION_GUST REUNION_GUST_PER USA_SEAHGT USA_SEARAD_NE USA_SEARAD_SE USA_SEARAD_SW USA_SEARAD_NW STORM_SPEED STORM_DIR
1980056S15059 1980 20 SI MM KOLIA 1980-02-25 06:00:00 TS -14.6000 59.0000 reunion main 630 630 _____O________ -1 -14.6000 59.0000 3 9.90000 2 91
1980056S15059 1980 20 SI MM KOLIA 1980-02-25 09:00:00 TS -14.6025 59.1125 main 633 633 _____P________ -1 -14.6025 59.1125 3 2 90
1980056S15059 1980 20 SI MM KOLIA 1980-02-25 12:00:00 TS -14.6000 59.2571 reunion main 638 638 O____O___OO_O_ jtwc_sh SH181980 -14.6000 59.3000 60 0 -14.6000 59.2000 99 9.90000 -14.6000 59.3000 TC 60 -14.6000 59.3000 0 -14.6000 59.3000 TC 60 2 88
1980056S15059 1980 20 SI MM KOLIA 1980-02-25 15:00:00 TS -14.5951 59.3124 main 638 638 P____P___PP_P_ SH181980 -14.5875 59.3425 60 0 -14.5925 59.2500 99 -14.5875 59.3425 TC 60 -14.6234 59.3469 0 -14.5875 59.3425 TC 60 1 95
1980056S15059 1980 20 SI MM KOLIA 1980-02-25 18:00:00 TS -14.6089 59.3759 reunion main 641 633 O____O___OP_O_ jtwc_sh SH181980 -14.6000 59.4000 60 0 -14.6000 59.3000 99 9.90000 -14.6000 59.4000 TC 60 -14.6474 59.4050 0 -14.6000 59.4000 TC 60 2 112
1980056S15059 1980 20 SI MM KOLIA 1980-02-25 21:00:00 TS -14.6545 59.4666 main 633 633 P____P___PP_P_ SH181980 -14.6500 59.4850 60 0 -14.6500 59.3925 99 -14.6500 59.4850 TC 60 -14.6727 59.4856 0 -14.6500 59.4850 TC 60 2 115
1980056S15059 1980 20 SI MM KOLIA 1980-02-26 00:00:00 TS -14.7000 59.5800 reunion main 636 636 O____O___OO_O_ jtwc_sh SH181980 -14.7000 59.6000 60 0 -14.7000 59.5000 99 9.90000 -14.7000 59.6000 TC 60 -14.7000 59.6000 2 60 -14.7000 59.6000 TC 60 2 102
1980056S15059 1980 20 SI MM KOLIA 1980-02-26 03:00:00 TS -14.7073 59.7161 main 640 640 P____P___PP_P_ SH181980 -14.7000 59.7425 60 0 -14.7075 59.6000 99 -14.7000 59.7425 TC 60 -14.7292 59.7528 2 -14.7000 59.7425 TC 60 3 92
1980056S15059 1980 20 SI MM KOLIA 1980-02-26 06:00:00 TS -14.7115 59.8645 reunion main 647 647 O____O___OP_O_ jtwc_sh SH181980 -14.7000 59.9000 60 0 -14.7000 59.7000 3 9.90000 -14.7000 59.9000 TC 60 -14.7576 59.9225 2 -14.7000 59.9000 TC 60 3 97
1980056S15059 1980 20 SI MM KOLIA 1980-02-26 09:00:00 TS -14.7450 60.0212 main 651 641 P____P___PP_P_ SH181980 -14.7500 60.0725 60 0 -14.6925 59.8075 3 -14.7500 60.0725 TC 60 -14.7823 60.0809 2 -14.7500 60.0725 TC 60 3 104
1980056S15059 1980 20 SI MM KOLIA 1980-02-26 12:00:00 TS -14.7800 60.1400 reunion main 645 645 O____O___OO_O_ jtwc_sh SH181980 -14.8000 60.2000 60 0 -14.7000 59.9000 99 9.90000 -14.8000 60.2000 TC 60 -14.8000 60.2000 0 -14.8000 60.2000 TC 60 2 108
1980056S15059 1980 20 SI MM KOLIA 1980-02-26 15:00:00 TS -14.7935 60.1705 main 649 649 P____P___PP_P_ SH181980 -14.8075 60.2225 60 0 -14.7500 59.9500 99 -14.8075 60.2225 TC 60 -14.7949 60.2350 0 -14.8075 60.2225 TC 60 0 0
1980056S15059 1980 20 SI MM KOLIA 1980-02-26 18:00:00 TS -14.7970 60.1660 reunion main 649 649 O____O___OP_O_ jtwc_sh SH181980 -14.8000 60.2000 60 0 -14.8000 60.0000 99 9.90000 -14.8000 60.2000 TC 60 -14.7849 60.2300 0 -14.8000 60.2000 TC 60 0 0
1980056S15059 1980 20 SI MM KOLIA 1980-02-26 21:00:00 TS -14.7905 60.1745 main 649 649 P____P___PP_P_ SH181980 -14.7925 60.1925 60 0 -14.7925 60.0850 99 -14.7925 60.1925 TC 60 -14.7825 60.2100 0 -14.7925 60.1925 TC 60 0 94
1980056S15059 1980 20 SI MM KOLIA 1980-02-27 00:00:00 TS -14.8000 60.2000 reunion main 649 643 O____O___OO_O_ jtwc_sh SH181980 -14.8000 60.2000 60 0 -14.8000 60.2000 99 9.90000 -14.8000 60.2000 TC 60 -14.8000 60.2000 2 60 -14.8000 60.2000 TC 60 1 125
1980056S15059 1980 20 SI MM KOLIA 1980-02-27 03:00:00 TS -14.8541 60.2680 main 643 643 P____P___PP_P_ SH181980 -14.8350 60.2425 60 0 -14.9000 60.3649 99 -14.8350 60.2425 TC 60 -14.8656 60.2478 2 -14.8350 60.2425 TC 60 2 133
1980056S15059 1980 20 SI MM KOLIA 1980-02-27 06:00:00 TS -14.9300 60.3415 reunion main 643 638 O____O___OP_O_ jtwc_sh SH181980 -14.9000 60.3000 60 0 -15.0000 60.5000 3 9.90000 -14.9000 60.3000 TC 60 -14.9500 60.3074 2 -14.9000 60.3000 TC 60 2 144
1980056S15059 1980 20 SI MM KOLIA 1980-02-27 09:00:00 TS -15.0144 60.3917 main 638 628 P____P___PP_P_ SH181980 -15.0075 60.3575 60 0 -15.0150 60.5225 3 -15.0075 60.3575 TC 60 -15.0344 60.3634 2 -15.0075 60.3575 TC 60 2 153
1980056S15059 1980 20 SI MM KOLIA 1980-02-27 12:00:00 TS -15.0800 60.4200 reunion main 628 628 O____O___OO_O_ jtwc_sh SH181980 -15.1000 60.4000 60 0 -15.0000 60.5000 99 9.90000 -15.1000 60.4000 TC 60 -15.1000 60.4000 0 -15.1000 60.4000 TC 60 1 158
1980056S15059 1980 20 SI MM KOLIA 1980-02-27 15:00:00 TS -15.0879 60.4235 main 628 628 P____P___PP_P_ SH181980 -15.1150 60.4150 60 0 -14.9850 60.5000 99 -15.1150 60.4150 TC 60 -15.1094 60.3722 0 -15.1150 60.4150 TC 60 0 0
1980056S15059 1980 20 SI MM KOLIA 1980-02-27 18:00:00 TS -15.0800 60.4055 reunion main 628 628 O____O___OP_O_ jtwc_sh SH181980 -15.1000 60.4000 60 0 -15.0000 60.5000 99 9.90000 -15.1000 60.4000 TC 60 -15.1000 60.3276 0 -15.1000 60.4000 TC 60 1 264
1980056S15059 1980 20 SI MM KOLIA 1980-02-27 21:00:00 TS -15.0936 60.3598 main 628 623 P____P___PP_P_ SH181980 -15.0925 60.3350 60 0 -15.1000 60.5000 99 -15.0925 60.3350 TC 60 -15.0906 60.2941 0 -15.0925 60.3350 TC 60 1 240
1980056S15059 1980 20 SI MM KOLIA 1980-02-28 00:00:00 TS -15.1200 60.3400 reunion main 623 618 O____O___OO_O_ jtwc_sh SH181980 -15.1000 60.3000 60 0 -15.2000 60.5000 99 9.90000 -15.1000 60.3000 TC 60 -15.1000 60.3000 2 60 -15.1000 60.3000 TC 60 1 144
1980056S15059 1980 20 SI MM KOLIA 1980-02-28 03:00:00 TS -15.1580 60.4064 main 618 618 P____P___PP_P_ SH181980 -15.1350 60.3700 60 0 -15.2150 60.5075 99 -15.1350 60.3700 TC 60 -15.1698 60.4142 2 -15.1350 60.3700 TC 60 2 119
1980056S15059 1980 20 SI MM KOLIA 1980-02-28 06:00:00 TS -15.2115 60.5130 reunion main 623 618 O____O___OP_O_ jtwc_sh SH181980 -15.2000 60.5000 60 0 -15.2000 60.5000 3 9.90000 -15.2000 60.5000 TC 60 -15.2577 60.5648 2 -15.2000 60.5000 TC 60 3 122
1980056S15059 1980 20 SI MM KOLIA 1980-02-28 09:00:00 TS -15.2974 60.6411 main 618 614 P____P___PP_P_ SH181980 -15.3150 60.6799 60 0 -15.2000 60.4575 3 -15.3150 60.6799 TC 60 -15.3417 60.7080 2 -15.3150 60.6799 TC 60 2 127
1980056S15059 1980 20 SI MM KOLIA 1980-02-28 12:00:00 TS -15.3600 60.7200 reunion main 614 614 O____O___OO_O_ jtwc_sh SH181980 -15.4000 60.8000 60 0 -15.2000 60.4000 99 9.90000 -15.4000 60.8000 TC 60 -15.4000 60.8000 0 -15.4000 60.8000 TC 60 0 172
1980056S15059 1980 20 SI MM KOLIA 1980-02-28 15:00:00 TS -15.3365 60.6581 main 624 618 P____P___PP_P_ SH181980 -15.3650 60.7300 60 0 -15.2000 60.3425 99 -15.3650 60.7300 TC 60 -15.3875 60.7581 0 -15.3650 60.7300 TC 60 2 293
1980056S15059 1980 20 SI MM KOLIA 1980-02-28 18:00:00 TS -15.2900 60.5530 reunion main 618 613 O____O___OP_O_ jtwc_sh SH181980 -15.3000 60.6000 60 0 -15.2000 60.3000 99 9.90000 -15.3000 60.6000 TC 60 -15.3500 60.6650 0 -15.3000 60.6000 TC 60 2 291
1980056S15059 1980 20 SI MM KOLIA 1980-02-28 21:00:00 TS -15.2720 60.4894 main 613 613 P____P___PP_P_ SH181980 -15.2850 60.5275 60 0 -15.1925 60.3000 99 -15.2850 60.5275 TC 60 -15.3125 60.5644 0 -15.2850 60.5275 TC 60 1 276
1980056S15059 1980 20 SI MM KOLIA 1980-02-29 00:00:00 TS -15.2800 60.4600 reunion main 613 613 O____O___OO_O_ jtwc_sh SH181980 -15.3000 60.5000 60 0 -15.2000 60.3000 99 9.90000 -15.3000 60.5000 TC 60 -15.3000 60.5000 2 60 -15.3000 60.5000 TC 60 1 199
1980056S15059 1980 20 SI MM KOLIA 1980-02-29 03:00:00 TS -15.3247 60.4678 main 613 603 P____P___PP_P_ SH181980 -15.3350 60.5275 60 0 -15.2725 60.2125 99 -15.3350 60.5275 TC 60 -15.3463 60.5440 2 -15.3350 60.5275 TC 60 1 146
1980056S15059 1980 20 SI MM KOLIA 1980-02-29 06:00:00 TS -15.3840 60.5255 reunion main 603 603 O____O___OP_O_ jtwc_sh SH181980 -15.4000 60.6000 60 0 -15.3000 60.2000 3 9.90000 -15.4000 60.6000 TC 60 -15.4201 60.6274 2 -15.4000 60.6000 TC 60 2 119
1980056S15059 1980 20 SI MM KOLIA 1980-02-29 09:00:00 TS -15.4228 60.6515 main 614 604 P____P___PP_P_ SH181980 -15.5000 60.7000 60 0 -15.1051 60.4353 3 -15.5000 60.7000 TC 60 -15.5088 60.7221 2 -15.5000 60.7000 TC 60 3 111
1980056S15059 1980 20 SI MM KOLIA 1980-02-29 12:00:00 TS -15.4800 60.7800 reunion main 610 600 O____O___OO_O_ jtwc_sh SH181980 -15.6000 60.8000 60 0 -15.0000 60.7000 99 9.90000 -15.6000 60.8000 TC 60 -15.6000 60.8000 0 -15.6000 60.8000 TC 60 2 126
1980056S15059 1980 20 SI MM KOLIA 1980-02-29 15:00:00 TS -15.5685 60.8557 main 606 597 P____P___PP_P_ SH181980 -15.6500 60.8725 60 0 -15.2825 60.7874 99 -15.6500 60.8725 TC 60 -15.6098 60.8738 0 -15.6500 60.8725 TC 60 2 155
1980056S15059 1980 20 SI MM KOLIA 1980-02-29 18:00:00 TS -15.6859 60.8838 reunion main 597 588 O____O___OP_O_ jtwc_sh SH181980 -15.7000 60.9000 60 0 -15.7000 60.8000 99 9.90000 -15.7000 60.9000 TC 60 -15.6297 60.9189 0 -15.7000 60.9000 TC 60 2 167
1980056S15059 1980 20 SI MM KOLIA 1980-02-29 21:00:00 TS -15.7799 60.8883 main 588 563 P____P___PP_P_ SH181980 -15.7324 60.9022 60 0 -15.9925 60.8299 99 -15.7324 60.9022 TC 60 -15.7097 60.9046 0 -15.7324 60.9022 TC 60 3 195
1980056S15059 1980 20 SI MM KOLIA 1980-03-01 00:00:00 TS -15.9800 60.8000 reunion main 563 514 O____O___OO_O_ jtwc_sh SH181980 -15.9000 60.8000 60 0 -16.3000 60.8000 99 9.90000 -15.9000 60.8000 TC 60 -15.9000 60.8000 2 60 -15.9000 60.8000 TC 60 7 205
1980056S15059 1980 20 SI MM KOLIA 1980-03-01 03:00:00 TS -16.4168 60.5730 main 514 450 P____P___PP_P_ SH181980 -16.3475 60.5452 60 0 -16.7075 60.6876 99 -16.3475 60.5452 TC 60 -16.3336 60.5420 2 -16.3475 60.5452 TC 60 11 209
1980056S15059 1980 20 SI MM KOLIA 1980-03-01 06:00:00 TS -16.9332 60.2596 reunion main 450 380 O____O___OP_O_ jtwc_sh SH181980 -16.9000 60.2000 60 0 -17.1000 60.5000 3 9.90000 -16.9000 60.2000 TC 60 -16.8658 60.1979 2 -16.9000 60.2000 TC 60 12 212
1980056S15059 1980 20 SI MM KOLIA 1980-03-01 09:00:00 TS -17.4121 59.9171 main 380 334 P____P___PP_P_ SH181980 -17.4251 59.8278 60 0 -17.3950 60.2725 3 -17.4251 59.8278 TC 60 -17.3900 59.8295 2 -17.4251 59.8278 TC 60 10 217
1980056S15059 1980 20 SI MM KOLIA 1980-03-01 12:00:00 TS -17.7600 59.6000 reunion main 325 304 O____O___OO_O_ jtwc_sh SH181980 -17.8000 59.5000 60 0 -17.6000 60.0000 99 9.90000 -17.8000 59.5000 TC 60 -17.8000 59.5000 0 -17.8000 59.5000 TC 60 7 229
1980056S15059 1980 20 SI MM KOLIA 1980-03-01 15:00:00 TS -17.8512 59.3933 main 304 298 P____P___PP_P_ SH181980 -17.8599 59.3197 60 0 -17.7225 59.6924 99 -17.8599 59.3197 TC 60 -17.9539 59.3149 0 -17.8599 59.3197 TC 60 4 258
1980056S15059 1980 20 SI MM KOLIA 1980-03-01 18:00:00 TS -17.8369 59.2353 reunion main 301 286 O____O___OP_O_ jtwc_sh SH181980 -17.8000 59.2000 60 0 -17.8000 59.4000 99 9.90000 -17.8000 59.2000 TC 60 -17.9844 59.1763 0 -17.8000 59.2000 TC 60 3 264
1980056S15059 1980 20 SI MM KOLIA 1980-03-01 21:00:00 TS -17.8825 59.0919 main 286 276 P____P___PP_P_ SH181980 -17.8499 59.0650 57 0 -17.9148 59.2150 99 -17.8499 59.0650 TC 57 -17.9477 59.0496 0 -17.8499 59.0650 TC 57 3 255
1980056S15059 1980 20 SI MM KOLIA 1980-03-02 00:00:00 TS -17.9200 58.9200 reunion main 276 267 O____O___OO_O_ jtwc_sh SH181980 -17.9000 58.9000 55 0 -18.0000 59.0000 99 9.90000 -17.9000 58.9000 TC 55 -17.9000 58.9000 2 60 -17.9000 58.9000 TC 55 4 264
1980056S15059 1980 20 SI MM KOLIA 1980-03-02 03:00:00 TS -17.9290 58.6554 main 267 256 P____P___PP_P_ SH181980 -17.9000 58.6649 52 0 -18.0077 58.6074 99 -17.9000 58.6649 TC 52 -17.9373 58.6748 2 -17.9000 58.6649 TC 52 5 268
1980056S15059 1980 20 SI MM KOLIA 1980-03-02 06:00:00 TS -17.9345 58.3645 reunion main 256 238 O____O___OP_O_ jtwc_sh SH181980 -17.9000 58.4000 50 0 -18.0000 58.2000 3 9.90000 -17.9000 58.4000 TC 50 -17.9726 58.4227 2 -17.9000 58.4000 TC 50 5 264
1980056S15059 1980 20 SI MM KOLIA 1980-03-02 09:00:00 TS -17.9838 58.1074 main 238 235 P____P___PP_P_ SH181980 -17.9575 58.1501 50 0 -18.0499 57.9275 3 -17.9575 58.1501 TC 50 -17.9966 58.1592 2 -17.9575 58.1501 TC 50 5 260
1980056S15059 1980 20 SI MM KOLIA 1980-03-02 12:00:00 TS -18.0200 57.8600 reunion main 235 234 O____O___OO_O_ jtwc_sh SH181980 -18.0000 57.9000 50 0 -18.1000 57.7000 99 9.90000 -18.0000 57.9000 TC 50 -18.0000 57.9000 0 -18.0000 57.9000 TC 50 5 268
1980056S15059 1980 20 SI MM KOLIA 1980-03-02 15:00:00 TS -18.0017 57.5867 main 234 234 P____P___PP_P_ SH181980 -17.9650 57.6424 50 0 -18.1376 57.4200 99 -17.9650 57.6424 TC 50 -17.9757 57.5863 0 -17.9650 57.6424 TC 50 5 279
1980056S15059 1980 20 SI MM KOLIA 1980-03-02 18:00:00 TS -17.9460 57.3384 reunion main 247 247 O____O___OP_O_ jtwc_sh SH181980 -17.9000 57.4000 50 0 -18.1000 57.2000 99 9.90000 -17.9000 57.4000 TC 50 -17.9300 57.2921 0 -17.9000 57.4000 TC 50 5 286
1980056S15059 1980 20 SI MM KOLIA 1980-03-02 21:00:00 TS -17.8683 57.1113 main 249 249 P____P___PP_P_ SH181980 -17.8575 57.1325 50 0 -17.8999 57.0825 99 -17.8575 57.1325 TC 50 -17.8693 57.0769 0 -17.8575 57.1325 TC 50 3 299
1980056S15059 1980 20 SI MM KOLIA 1980-03-03 00:00:00 TS -17.7800 57.0200 reunion main 262 262 O____O___OO_O_ jtwc_sh SH181980 -17.8000 57.0000 50 0 -17.7000 57.1000 99 9.90000 -17.8000 57.0000 TC 50 -17.8000 57.0000 2 50 -17.8000 57.0000 TC 50 2 13
1980056S15059 1980 20 SI MM KOLIA 1980-03-03 03:00:00 TS -17.6875 57.1536 main 270 269 P____P___PP_P_ SH181980 -17.6999 57.1176 50 0 -17.6700 57.2550 99 -17.6999 57.1176 TC 50 -17.6675 57.1605 2 -17.6999 57.1176 TC 50 4 66
1980056S15059 1980 20 SI MM KOLIA 1980-03-03 06:00:00 TS -17.6076 57.4307 reunion main 279 279 O____O___OP_O_ jtwc_sh SH181980 -17.6000 57.4000 50 0 -17.7000 57.5000 2 9.90000 -17.6000 57.4000 TC 50 -17.5382 57.4536 2 -17.6000 57.4000 TC 50 6 75
1980056S15059 1980 20 SI MM KOLIA 1980-03-03 09:00:00 TS -17.5285 57.7666 main 291 291 P____P___PP_P_ SH181980 -17.4977 57.7651 50 0 -17.6850 57.7426 2 -17.4977 57.7651 TC 50 -17.4646 57.7948 2 -17.4977 57.7651 TC 50 6 84
1980056S15059 1980 20 SI MM KOLIA 1980-03-03 12:00:00 TS -17.5400 58.0800 reunion main 293 273 O____O___OO_O_ jtwc_sh SH181980 -17.5000 58.1000 50 0 -17.7000 58.0000 99 9.90000 -17.5000 58.1000 TC 50 -17.5000 58.1000 0 -17.5000 58.1000 TC 50 5 111
1980056S15059 1980 20 SI MM KOLIA 1980-03-03 15:00:00 TS -17.7067 58.2486 main 273 243 P____P___PP_P_ SH181980 -17.6824 58.2375 50 0 -17.7400 58.2725 99 -17.6824 58.2375 TC 50 -17.7463 58.2580 0 -17.6824 58.2375 TC 50 5 151
1980056S15059 1980 20 SI MM KOLIA 1980-03-03 18:00:00 TS -17.9995 58.3534 reunion main 246 207 O____O___OP_O_ jtwc_sh SH181980 -18.0000 58.3000 50 0 -17.9000 58.5000 99 9.90000 -18.0000 58.3000 TC 50 -18.0973 58.3670 0 -18.0000 58.3000 TC 50 7 163
1980056S15059 1980 20 SI MM KOLIA 1980-03-03 21:00:00 TS -18.4054 58.4694 main 207 167 P____P___PP_P_ SH181980 -18.4225 58.4074 50 0 -18.2849 58.6822 99 -18.4225 58.4074 TC 50 -18.4746 58.4425 0 -18.4225 58.4074 TC 50 8 167
1980056S15059 1980 20 SI MM KOLIA 1980-03-04 00:00:00 TS -18.7800 58.5400 reunion main 167 158 O____O___OO_O_ jtwc_sh SH181980 -18.8000 58.5000 50 0 -18.7000 58.7000 99 9.90000 -18.8000 58.5000 TC 50 -18.8000 58.5000 2 50 -18.8000 58.5000 TC 50 5 174
1980056S15059 1980 20 SI MM KOLIA 1980-03-04 03:00:00 TS -18.9360 58.5264 main 158 148 P____P___PP_P_ SH181980 -18.9450 58.5576 50 0 -18.9452 58.3704 99 -18.9450 58.5576 TC 50 -18.8997 58.5888 2 -18.9450 58.5576 TC 50 2 186
1980056S15059 1980 20 SI MM KOLIA 1980-03-04 06:00:00 TS -19.0095 58.5120 reunion main 148 146 O____O___OP_O_ jtwc_sh SH181980 -19.0000 58.6000 50 0 -19.1000 58.1000 2 9.90000 -19.0000 58.6000 TC 50 -18.9475 58.6599 2 -19.0000 58.6000 TC 50 1 148
1980056S15059 1980 20 SI MM KOLIA 1980-03-04 09:00:00 TS -19.0609 58.6116 main 146 145 P____P___PP_P_ SH181980 -19.0400 58.6650 50 0 -19.1628 58.3623 2 -19.0400 58.6650 TC 50 -19.0215 58.7010 2 -19.0400 58.6650 TC 50 3 140
1980056S15059 1980 20 SI MM KOLIA 1980-03-04 12:00:00 TS -19.2200 58.7000 reunion main 145 118 O____O___OO_O_ jtwc_sh SH181980 -19.2000 58.7000 50 0 -19.3000 58.7000 99 9.90000 -19.2000 58.7000 TC 50 -19.2000 58.7000 0 -19.2000 58.7000 TC 50 6 174
1980056S15059 1980 20 SI MM KOLIA 1980-03-04 15:00:00 TS -19.6533 58.6889 main 113 84 P____P___PP_P_ SH181980 -19.6400 58.6799 50 0 -19.7049 58.7250 99 -19.6400 58.6799 TC 50 -19.6417 58.6798 0 -19.6400 58.6799 TC 50 10 185
1980056S15059 1980 20 SI MM KOLIA 1980-03-04 18:00:00 TS -20.1969 58.6026 reunion main 84 76 O____O___OP_O_ jtwc_sh SH181980 -20.2000 58.6000 50 0 -20.2000 58.6000 99 9.90000 -20.2000 58.6000 TC 50 -20.1847 58.6128 0 -20.2000 58.6000 TC 50 11 191
1980056S15059 1980 20 SI MM KOLIA 1980-03-04 21:00:00 TS -20.7110 58.4749 main 85 80 P____P___PP_P_ SH181980 -20.7374 58.4875 50 0 -20.6075 58.4226 99 -20.7374 58.4875 TC 50 -20.7353 58.4893 0 -20.7374 58.4875 TC 50 10 197
1980056S15059 1980 20 SI MM KOLIA 1980-03-05 00:00:00 TS -21.1600 58.2800 reunion main 100 93 O____O___OO_O_ jtwc_sh SH181980 -21.2000 58.3000 50 0 -21.0000 58.2000 99 9.90000 -21.2000 58.3000 TC 50 -21.2000 58.3000 2 50 -21.2000 58.3000 TC 50 9 208
1980056S15059 1980 20 SI MM KOLIA 1980-03-05 03:00:00 TS -21.5067 58.0273 main 116 116 P____P___PP_P_ SH181980 -21.5175 58.0300 50 0 -21.4448 58.0300 99 -21.5175 58.0300 TC 50 -21.5364 58.0162 2 -21.5175 58.0300 TC 50 8 223
1980056S15059 1980 20 SI MM KOLIA 1980-03-05 06:00:00 TS -21.7326 57.7147 reunion main 134 134 O____O___OP_O_ jtwc_sh SH181980 -21.7000 57.7000 50 0 -21.8000 57.8000 2 9.90000 -21.7000 57.7000 TC 50 -21.7632 57.6737 2 -21.7000 57.7000 TC 50 7 239
1980056S15059 1980 20 SI MM KOLIA 1980-03-05 09:00:00 TS -21.8858 57.3390 main 156 141 P____P___PP_P_ SH181980 -21.8476 57.3352 50 0 -22.0279 57.3701 2 -21.8476 57.3352 TC 50 -21.8583 57.3193 2 -21.8476 57.3352 TC 50 7 261
1980056S15059 1980 20 SI MM KOLIA 1980-03-05 12:00:00 TS -21.8400 57.0000 reunion main 136 105 O____O___OO_O_ jtwc_sh SH181980 -21.8000 57.0000 50 0 -22.0000 57.0000 99 9.90000 -21.8000 57.0000 TC 50 -21.8000 57.0000 0 -21.8000 57.0000 TC 50 6 309
1980056S15059 1980 20 SI MM KOLIA 1980-03-05 15:00:00 TS -21.4896 56.8087 main 105 83 P____P___PP_P_ SH181980 -21.4599 56.7698 50 0 -21.6023 56.9703 99 -21.4599 56.7698 TC 50 -21.4660 56.7640 0 -21.4599 56.7698 TC 50 9 340
1980056S15059 1980 20 SI MM KOLIA 1980-03-05 18:00:00 TS -21.0209 56.6746 reunion main 83 76 O____O___OP_O_ jtwc_sh SH181980 -21.0000 56.6000 50 0 -21.1000 57.0000 99 9.90000 -21.0000 56.6000 TC 50 -21.0047 56.5730 0 -21.0000 56.6000 TC 50 9 343
1980056S15059 1980 20 SI MM KOLIA 1980-03-05 21:00:00 TS -20.6087 56.5156 main 84 83 P____P___PP_P_ SH181980 -20.5600 56.4274 50 0 -20.7973 56.8750 99 -20.5600 56.4274 TC 50 -20.5661 56.4206 0 -20.5600 56.4274 TC 50 7 336
1980056S15059 1980 20 SI MM KOLIA 1980-03-06 00:00:00 TS -20.3600 56.3600 reunion main 94 84 O____O___OO_O_ jtwc_sh SH181980 -20.3000 56.3000 50 0 -20.6000 56.6000 99 9.90000 -20.3000 56.3000 TC 50 -20.3000 56.3000 2 50 -20.3000 56.3000 TC 50 4 308
1980056S15059 1980 20 SI MM KOLIA 1980-03-06 03:00:00 TS -20.3771 56.1999 main 84 61 P____P___PP_P_ SH181980 -20.3875 56.2425 50 0 -20.3581 56.0473 99 -20.3875 56.2425 TC 50 -20.3651 56.2245 2 -20.3875 56.2425 TC 50 4 226
1980056S15059 1980 20 SI MM KOLIA 1980-03-06 06:00:00 TS -20.6244 56.0744 reunion main 61 23 O____O___OP_O_ jtwc_sh SH181980 -20.7000 56.2000 50 0 -20.4000 55.6000 2 9.90000 -20.7000 56.2000 TC 50 -20.6222 56.1718 2 -20.7000 56.2000 TC 50 7 194
1980056S15059 1980 20 SI MM KOLIA 1980-03-06 09:00:00 TS -21.0356 56.0328 main 23 20 P____P___PP_P_ SH181980 -21.0475 56.1223 50 0 -21.0174 55.6890 2 -21.0475 56.1223 TC 50 -21.0182 56.1083 2 -21.0475 56.1223 TC 50 9 185
1980056S15059 1980 20 SI MM KOLIA 1980-03-06 12:00:00 TS -21.5600 55.9800 reunion main 39 39 O____O___OO_O_ jtwc_sh SH181980 -21.5000 56.0000 50 0 -21.8000 55.9000 99 9.90000 -21.5000 56.0000 TC 50 -21.5000 56.0000 0 -21.5000 56.0000 TC 50 11 190
1980056S15059 1980 20 SI MM KOLIA 1980-03-06 15:00:00 TS -22.0706 55.8371 main 80 80 P____P___PP_P_ SH181980 -22.0275 55.8299 50 0 -22.2723 55.8749 99 -22.0275 55.8299 TC 50 -21.9984 55.8210 0 -22.0275 55.8299 TC 50 11 198
1980056S15059 1980 20 SI MM KOLIA 1980-03-06 18:00:00 TS -22.6125 55.6181 reunion main 134 134 O____O___OP_O_ jtwc_sh SH181980 -22.6000 55.6000 50 0 -22.7000 55.7000 99 9.90000 -22.6000 55.6000 TC 50 -22.5624 55.5904 0 -22.6000 55.6000 TC 50 12 203
1980056S15059 1980 20 SI MM KOLIA 1980-03-06 21:00:00 TS -23.1765 55.3354 main 203 203 P____P___PP_P_ SH181980 -23.1650 55.3225 52 0 -23.2426 55.3952 99 -23.1650 55.3225 TC 52 -23.1452 55.3145 0 -23.1650 55.3225 TC 52 13 207
1980056S15059 1980 20 SI MM KOLIA 1980-03-07 00:00:00 TS -23.7200 55.0000 reunion main 264 264 O____O___OO_O_ jtwc_sh SH181980 -23.7000 55.0000 55 0 -23.8000 55.0000 99 9.90000 -23.7000 55.0000 TC 55 -23.7000 55.0000 2 50 -23.7000 55.0000 TC 55 12 211
1980056S15059 1980 20 SI MM KOLIA 1980-03-07 03:00:00 TS -24.2036 54.6697 main 326 326 P____P___PP_P_ SH181980 -24.1724 54.6647 57 0 -24.3373 54.6224 99 -24.1724 54.6647 TC 57 -24.1634 54.7318 2 -24.1724 54.6647 TC 57 11 215
1980056S15059 1980 20 SI MM KOLIA 1980-03-07 06:00:00 MX -24.6384 54.3038 reunion main 381 381 O____O___OP_O_ jtwc_sh SH181980 -24.6000 54.3000 60 0 -24.8000 54.2000 5 9.90000 -24.6000 54.3000 TC 60 -24.5922 54.4190 2 -24.6000 54.3000 TC 60 11 219
1980056S15059 1980 20 SI MM KOLIA 1980-03-07 09:00:00 MX -25.0241 53.9286 main 437 437 P____P___PP_P_ SH181980 -24.9993 53.9665 60 0 -25.1224 53.7219 5 -24.9993 53.9665 TC 60 -25.0001 54.0218 2 -24.9993 53.9665 TC 60 11 226
1980056S15059 1980 20 SI MM KOLIA 1980-03-07 12:00:00 TS -25.4000 53.4400 reunion main 497 497 O____O___OO_O_ jtwc_sh SH181980 -25.4000 53.5000 60 0 -25.4000 53.2000 99 9.90000 -25.4000 53.5000 TC 60 -25.4000 53.5000 0 -25.4000 53.5000 TC 60 13 233
1980056S15059 1980 20 SI MM KOLIA 1980-03-07 15:00:00 TS -25.8327 52.7423 main 561 508 P____P___PP_P_ SH181980 -25.8577 52.7679 60 0 -25.7348 52.6646 99 -25.8577 52.7679 TC 60 -25.8555 52.7431 0 -25.8577 52.7679 TC 60 16 238
1980056S15059 1980 20 SI MM KOLIA 1980-03-07 18:00:00 TS -26.2591 51.9341 reunion main 502 438 O____O___OP_O_ jtwc_sh SH181980 -26.3000 51.9000 60 0 -26.1000 52.1000 99 9.90000 -26.3000 51.9000 TC 60 -26.2953 51.8703 0 -26.3000 51.9000 TC 60 17 241
1980056S15059 1980 20 SI MM KOLIA 1980-03-07 21:00:00 TS -26.6590 51.1050 main 442 398 P____P___PP_P_ SH181980 -26.6955 50.9978 57 0 -26.5218 51.5450 99 -26.6955 50.9978 TC 57 -26.6869 50.9867 0 -26.6955 50.9978 TC 57 16 243
1980056S15059 1980 20 SI MM KOLIA 1980-03-08 00:00:00 TS -26.9800 50.3400 reunion main 389 364 O____O___OO_O_ jtwc_sh SH181980 -27.0000 50.2000 55 0 -26.9000 50.9000 99 9.90000 -27.0000 50.2000 TC 55 -27.0000 50.2000 2 60 -27.0000 50.2000 TC 55 13 247
1980056S15059 1980 20 SI MM KOLIA 1980-03-08 03:00:00 TS -27.1767 49.7536 main 364 336 P____P___PP_P_ SH181980 -27.1867 49.6817 52 0 -27.1308 50.0421 99 -27.1867 49.6817 TC 52 -27.1925 49.6806 2 -27.1867 49.6817 TC 52 10 251
1980056S15059 1980 20 SI MM KOLIA 1980-03-08 06:00:00 TS -27.3026 49.2741 reunion main 336 319 O____O___OP_O_ jtwc_sh SH181980 -27.3000 49.3000 50 0 -27.3000 49.2000 3 9.90000 -27.3000 49.3000 TC 50 -27.3131 49.2703 2 -27.3000 49.3000 TC 50 8 253
1980056S15059 1980 20 SI MM KOLIA 1980-03-08 09:00:00 TS -27.4230 48.8513 main 319 302 P____P___PP_P_ SH181980 -27.3995 48.9221 50 0 -27.5143 48.5899 3 -27.3995 48.9221 TC 50 -27.4024 48.9001 2 -27.3995 48.9221 TC 50 8 253
1980056S15059 1980 20 SI MM KOLIA 1980-03-08 12:00:00 TS -27.5400 48.4200 reunion main 302 293 O____O___OO_O_ jtwc_sh SH181980 -27.5000 48.5000 50 0 -27.7000 48.1000 99 9.90000 -27.5000 48.5000 TC 50 -27.5000 48.5000 0 -27.5000 48.5000 TC 50 9 254
1980056S15059 1980 20 SI MM KOLIA 1980-03-08 15:00:00 TS -27.6756 47.8690 main 299 290 P____P___PP_P_ SH181980 -27.6352 47.9225 50 0 -27.8145 47.6496 99 -27.6352 47.9225 TC 50 -27.6577 47.9280 0 -27.6352 47.9225 TC 50 10 254
1980056S15059 1980 20 SI MM KOLIA 1980-03-08 18:00:00 TS -27.8258 47.2841 reunion main 294 292 O____O___OP_O_ jtwc_sh SH181980 -27.8000 47.3000 50 0 -27.9000 47.2000 99 9.90000 -27.8000 47.3000 TC 50 -27.8292 47.3207 0 -27.8000 47.3000 TC 50 11 253
1980056S15059 1980 20 SI MM KOLIA 1980-03-08 21:00:00 TS -27.9902 46.7015 main 293 285 P____P___PP_P_ SH181980 -27.9925 46.7126 52 0 -27.9627 46.6420 99 -27.9925 46.7126 TC 52 -28.0109 46.7279 0 -27.9925 46.7126 TC 52 10 250
1980056S15059 1980 20 SI MM KOLIA 1980-03-09 00:00:00 TS -28.1800 46.1800 reunion main 298 296 O____O___OO_O_ jtwc_sh SH181980 -28.2000 46.2000 55 0 -28.1000 46.1000 99 9.90000 -28.2000 46.2000 TC 55 -28.2000 46.2000 2 50 -28.2000 46.2000 TC 55 9 243
1980056S15059 1980 20 SI MM KOLIA 1980-03-09 03:00:00 TS -28.4107 45.7823 main 314 313 P____P___PP_P_ SH181980 -28.3997 45.8123 57 0 -28.4348 45.6555 99 -28.3997 45.8123 TC 57 -28.4196 45.8191 2 -28.3997 45.8123 TC 57 8 233
1980056S15059 1980 20 SI MM KOLIA 1980-03-09 06:00:00 TS -28.6486 45.4610 reunion main 335 335 O____O___OP_O_ jtwc_sh SH181980 -28.6000 45.5000 60 0 -28.8000 45.3000 99 9.90000 -28.6000 45.5000 TC 60 -28.6428 45.5048 2 -28.6000 45.5000 TC 60 7 229
1980056S15059 1980 20 SI MM KOLIA 1980-03-09 09:00:00 TS -28.8637 45.1814 main 368 368 P____P___PP_P_ SH181980 -28.8147 45.2149 60 0 -29.0296 45.0495 99 -28.8147 45.2149 TC 60 -28.8448 45.2131 2 -28.8147 45.2149 TC 60 6 232
1980056S15059 1980 20 SI MM KOLIA 1980-03-09 12:00:00 TS -29.0400 44.8800 reunion main 380 380 O____O___OO_O_ jtwc_sh SH181980 -29.0000 44.9000 60 0 -29.2000 44.8000 99 9.90000 -29.0000 44.9000 TC 60 -29.0000 44.9000 0 -29.0000 44.9000 TC 60 7 243
1980056S15059 1980 20 SI MM KOLIA 1980-03-09 15:00:00 TS -29.1881 44.4530 main 407 407 P____P___PP_P_ SH181980 -29.1376 44.4651 60 0 -29.4026 44.4230 99 -29.1376 44.4651 TC 60 -29.1250 44.4469 0 -29.1376 44.4651 TC 60 8 254
1980056S15059 1980 20 SI MM KOLIA 1980-03-09 18:00:00 TS -29.2588 43.9950 reunion main 429 429 O____O___OP_O_ jtwc_sh SH181980 -29.2000 44.0000 60 0 -29.5000 44.0000 99 9.90000 -29.2000 44.0000 TC 60 -29.1939 43.9750 0 -29.2000 44.0000 TC 60 8 266
1980056S15059 1980 20 SI MM KOLIA 1980-03-09 21:00:00 TS -29.2402 43.5338 main 435 435 P____P___PP_P_ SH181980 -29.2026 43.5474 60 0 -29.4027 43.4865 99 -29.2026 43.5474 TC 60 -29.1906 43.5405 0 -29.2026 43.5474 TC 60 7 281
1980056S15059 1980 20 SI MM KOLIA 1980-03-10 00:00:00 TS -29.1200 43.2000 reunion main 437 422 O____O___OO_O_ jtwc_sh SH181980 -29.1000 43.2000 60 0 -29.2000 43.2000 99 9.90000 -29.1000 43.2000 TC 60 -29.1000 43.2000 2 60 -29.1000 43.2000 TC 60 5 314
1980056S15059 1980 20 SI MM KOLIA 1980-03-10 03:00:00 TS -28.9181 43.1500 main 422 397 P____P___PP_P_ SH181980 -28.8873 43.0476 60 0 -29.0303 43.5664 99 -28.8873 43.0476 TC 60 -28.8981 43.0407 2 -28.8873 43.0476 TC 60 5 0
1980056S15059 1980 20 SI MM KOLIA 1980-03-10 06:00:00 TS -28.6433 43.1751 reunion main 387 369 O____O___OP_O_ jtwc_sh SH181980 -28.6000 43.0000 60 0 -28.8000 43.9000 99 9.90000 -28.6000 43.0000 TC 60 -28.6164 42.9755 2 -28.6000 43.0000 TC 60 6 353
1980056S15059 1980 20 SI MM KOLIA 1980-03-10 09:00:00 TS -28.3335 43.0588 main 358 336 P____P___PP_P_ SH181980 -28.3000 42.9577 60 0 -28.4658 43.4735 99 -28.3000 42.9577 TC 60 -28.3015 42.9473 2 -28.3000 42.9577 TC 60 7 339
1980056S15059 1980 20 SI MM KOLIA 1980-03-10 12:00:00 TS -28.0200 42.9000 reunion main 336 311 O____O___OO_O_ jtwc_sh SH181980 -28.0000 42.9000 60 0 -28.1000 42.9000 99 9.90000 -28.0000 42.9000 TC 60 -28.0000 42.9000 0 -28.0000 42.9000 TC 60 7 336
1980056S15059 1980 20 SI MM KOLIA 1980-03-10 15:00:00 TS -27.7306 42.7526 main 311 304 P____P___PP_P_ SH181980 -27.7275 42.7725 60 0 -27.7771 42.7132 99 -27.7275 42.7725 TC 60 -27.6934 42.7326 0 -27.7275 42.7725 TC 60 6 333
1980056S15059 1980 20 SI MM KOLIA 1980-03-10 18:00:00 TS -27.4841 42.5883 reunion main 304 292 O____O___OP_O_ jtwc_sh SH181980 -27.5000 42.6000 60 0 -27.5000 42.6000 99 9.90000 -27.5000 42.6000 TC 60 -27.4203 42.5414 0 -27.5000 42.6000 TC 60 6 325
1980056S15059 1980 20 SI MM KOLIA 1980-03-10 21:00:00 TS -27.2545 42.3822 main 299 291 P____P___PP_P_ SH181980 -27.2675 42.3998 60 0 -27.2326 42.3572 99 -27.2675 42.3998 TC 60 -27.2371 42.3546 0 -27.2675 42.3998 TC 60 5 310
1980056S15059 1980 20 SI MM KOLIA 1980-03-11 00:00:00 TS -27.1800 42.1800 reunion main 304 304 O____O___OO_O_ jtwc_sh SH181980 -27.2000 42.2000 60 0 -27.1000 42.1000 99 9.90000 -27.2000 42.2000 TC 60 -27.2000 42.2000 2 60 -27.2000 42.2000 TC 60 4 253
1980056S15059 1980 20 SI MM KOLIA 1980-03-11 03:00:00 TS -27.3679 41.9730 main 334 334 P____P___PP_P_ SH181980 -27.4250 42.0130 60 0 -27.1225 41.8406 99 -27.4250 42.0130 TC 60 -27.4417 41.9855 2 -27.4250 42.0130 TC 60 6 209
1980056S15059 1980 20 SI MM KOLIA 1980-03-11 06:00:00 TS -27.7235 41.8448 reunion main 372 372 O____O___OP_O_ jtwc_sh SH181980 -27.8000 41.9000 60 0 -27.4000 41.7000 99 9.90000 -27.8000 41.9000 TC 60 -27.8173 41.8239 2 -27.8000 41.9000 TC 60 8 191
1980056S15059 1980 20 SI MM KOLIA 1980-03-11 09:00:00 TS -28.1699 41.8024 main 414 414 P____P___PP_P_ SH181980 -28.1944 41.8299 60 0 -28.0570 41.7222 99 -28.1944 41.8299 TC 60 -28.2093 41.8000 2 -28.1944 41.8299 TC 60 8 170
1980056S15059 1980 20 SI MM KOLIA 1980-03-11 12:00:00 TS -28.5400 42.0000 reunion main 429 418 O____O___OO_O_ jtwc_sh SH181980 -28.5000 42.0000 60 0 -28.7000 42.0000 99 9.90000 -28.5000 42.0000 TC 60 -28.5000 42.0000 0 -28.5000 42.0000 TC 60 8 127
1980056S15059 1980 20 SI MM KOLIA 1980-03-11 15:00:00 TS -28.6536 42.5428 main 423 384 P____P___PP_P_ SH181980 -28.5825 42.5297 60 0 -28.9574 42.5439 99 -28.5825 42.5297 TC 60 -28.5630 42.5811 0 -28.5825 42.5297 TC 57 12 92
1980056S15059 1980 20 SI MM KOLIA 1980-03-11 18:00:00 TS -28.5803 43.3147 reunion main 384 331 O____O___OP_O_ jtwc_sh SH181980 -28.5000 43.3000 60 0 -28.9000 43.3000 99 9.90000 -28.5000 43.3000 TC 60 -28.5014 43.3735 0 -28.5000 43.3000 TC 55 15 79
1980056S15059 1980 20 SI MM KOLIA 1980-03-11 21:00:00 TS -28.3828 44.1846 main 327 279 P____P___PP_P_ SH181980 -28.3459 44.1806 60 0 -28.5380 44.1523 99 -28.3459 44.1806 TC 60 -28.3383 44.2289 0 -28.3459 44.1806 TC 52 16 72
1980056S15059 1980 20 SI MM KOLIA 1980-03-12 00:00:00 TS -28.1000 45.0000 reunion main 279 256 O____O___OO_O_ jtwc_sh SH181980 -28.1000 45.0000 60 0 -28.1000 45.0000 99 9.90000 -28.1000 45.0000 TC 60 -28.1000 45.0000 2 60 -28.1000 45.0000 TC 50 13 67
1980056S15059 1980 20 SI MM KOLIA 1980-03-12 03:00:00 TS -27.8563 45.5831 main 257 226 P____P___PP_P_ SH181980 -27.8218 45.5322 60 0 -27.9575 45.7537 99 -27.8218 45.5322 TC 60 -27.8585 45.5653 2 -27.8218 45.5322 TC 47 10 59
1980056S15059 1980 20 SI MM KOLIA 1980-03-12 06:00:00 TS -27.5707 46.0029 reunion main 228 195 O____O___OP_O_ jtwc_sh SH181980 -27.5000 45.9000 60 0 -27.8000 46.3000 99 9.90000 -27.5000 45.9000 TC 60 -27.5533 46.0145 2 -27.5000 45.9000 TC 45 9 47
1980056S15059 1980 20 SI MM KOLIA 1980-03-12 09:00:00 TS -27.2171 46.3439 main 195 167 P____P___PP_P_ SH181980 -27.1649 46.2676 60 0 -27.3944 46.5853 99 -27.1649 46.2676 TC 60 -27.1965 46.3312 2 -27.1649 46.2676 TC 42 9 31
1980056S15059 1980 20 SI MM KOLIA 1980-03-12 12:00:00 TS -26.8200 46.5200 reunion main 167 131 O____O___OO_O_ jtwc_sh SH181980 -26.8000 46.5000 60 0 -26.9000 46.6000 99 9.90000 -26.8000 46.5000 TC 60 -26.8000 46.5000 0 -26.8000 46.5000 TC 40 8 12
1980056S15059 1980 20 SI MM KOLIA 1980-03-12 15:00:00 TS -26.4184 46.5284 main 131 87 P____P___PP_P_ SH181980 -26.4223 46.5825 -1 -26.4502 46.3791 99 -26.4223 46.5825 TC -26.3748 46.5152 0 -26.4223 46.5825 TC 37 8 351
1980056S15059 1980 20 SI MM KOLIA 1980-03-12 18:00:00 TS -25.9866 46.3830 reunion main 87 30 O____O___OP_O_ jtwc_sh SH181980 -26.0000 46.5000 -1 -26.0000 46.1000 99 9.90000 -26.0000 46.5000 TC -25.9284 46.4093 0 -26.0000 46.5000 TC 35 10 341
1980056S15059 1980 20 SI MM KOLIA 1980-03-12 21:00:00 TS -25.5152 46.1888 main 30 0 P____P___PP_P_ SH181980 -25.5177 46.2844 -1 -25.5349 46.0279 99 -25.5177 46.2844 TC -25.4679 46.2239 0 -25.5177 46.2844 TC 32 10 340
1980056S15059 1980 20 SI MM KOLIA 1980-03-13 00:00:00 TS -25.0500 46.0000 reunion main 0 0 O____O___OO_O_ jtwc_sh SH181980 -25.0000 46.0000 -1 -25.1000 46.0000 99 9.90000 -25.0000 46.0000 TC -25.0000 46.0000 0 -25.0000 46.0000 TC 30 8 341
1980056S15059 1980 20 SI MM KOLIA 1980-03-13 03:00:00 NR -24.7725 45.9000 main 0 0 _____P________ SH181980 -1 -24.7725 45.9000 99 TC 0 TC 7 344
1980056S15059 1980 20 SI MM KOLIA 1980-03-13 06:00:00 TS -24.4000 45.8000 reunion main 0 0 _____O________ -1 -24.4000 45.8000 6 9.90000 0 10 350
1980056S15059 1980 20 SI MM KOLIA 1980-03-13 09:00:00 TS -23.8375 45.7274 main 0 0 _____P________ -1 -23.8375 45.7274 6 0 12 356
1980056S15059 1980 20 SI MM KOLIA 1980-03-13 12:00:00 NR -23.2000 45.7000 reunion main 0 0 _____O________ -1 -23.2000 45.7000 99 9.90000 12 0
1980056S15059 1980 20 SI MM KOLIA 1980-03-13 15:00:00 NR -22.5999 45.7048 main 0 0 _____P________ -1 -22.5999 45.7048 99 12 4
1980056S15059 1980 20 SI MM KOLIA 1980-03-13 18:00:00 NR -22.0000 45.8000 reunion main 0 0 _____O________ -1 -22.0000 45.8000 99 9.90000 13 10
1980056S15059 1980 20 SI MM KOLIA 1980-03-13 21:00:00 NR -21.3619 45.9372 main 0 0 _____P________ -1 -21.3619 45.9372 99 13 21
1980056S15059 1980 20 SI MM KOLIA 1980-03-14 00:00:00 NR -20.8000 46.3000 reunion main 0 0 _____O________ -1 -20.8000 46.3000 99 9.90000 15 43
1980056S15059 1980 20 SI MM KOLIA 1980-03-14 03:00:00 NR -20.2782 47.0345 main 0 0 _____P________ -1 -20.2782 47.0345 99 17 65
1980056S15059 1980 20 SI MM KOLIA 1980-03-14 06:00:00 TS -20.1000 47.9000 reunion main 0 0 _____O________ -1 -20.1000 47.9000 6 9.90000 16 95
1980056S15059 1980 20 SI MM KOLIA 1980-03-14 09:00:00 TS -20.4029 48.6959 main 10 10 _____P________ -1 -20.4029 48.6959 6 17 130
1980056S15059 1980 20 SI MM KOLIA 1980-03-14 12:00:00 NR -21.2000 49.3000 reunion main 95 95 _____O________ -1 -21.2000 49.3000 99 9.90000 22 157
1980056S15059 1980 20 SI MM KOLIA 1980-03-14 15:00:00 NR -22.4020 49.6138 main 159 159 _____P________ -1 -22.4020 49.6138 99 26 174
1980056S15059 1980 20 SI MM KOLIA 1980-03-14 18:00:00 NR -23.8000 49.6000 reunion main 198 198 _____O________ -1 -23.8000 49.6000 99 9.90000 26 187
1980056S15059 1980 20 SI MM KOLIA 1980-03-14 21:00:00 NR -25.0079 49.2476 main 199 198 _____P________ -1 -25.0079 49.2476 99 25 197
1980056S15059 1980 20 SI MM KOLIA 1980-03-15 00:00:00 NR -26.2000 48.8000 reunion main 216 216 _____O________ -1 -26.2000 48.8000 99 9.90000 26 194
1980056S15059 1980 20 SI MM KOLIA 1980-03-15 03:00:00 NR -27.5321 48.5455 main 306 306 _____P________ -1 -27.5321 48.5455 99 25 186
1980056S15059 1980 20 SI MM KOLIA 1980-03-15 06:00:00 TS -28.7000 48.5000 reunion main 425 425 _____O________ -1 -28.7000 48.5000 6 9.90000 19 176
1980056S15059 1980 20 SI MM KOLIA 1980-03-15 09:00:00 TS -29.4623 48.7092 main 515 515 _____P________ -1 -29.4623 48.7092 6 14 158
1980056S15059 1980 20 SI MM KOLIA 1980-03-15 12:00:00 NR -30.0000 49.1000 reunion main 581 581 _____O________ -1 -30.0000 49.1000 99 9.90000 13 147
1980056S15059 1980 20 SI MM KOLIA 1980-03-15 15:00:00 NR -30.5299 49.5130 main 648 648 _____P________ -1 -30.5299 49.5130 99 13 142
1980056S15059 1980 20 SI MM KOLIA 1980-03-15 18:00:00 NR -31.0000 50.0000 reunion main 719 719 _____O________ -1 -31.0000 50.0000 99 9.90000 13 137
1980056S15059 1980 20 SI MM KOLIA 1980-03-15 21:00:00 NR -31.4801 50.5498 main 790 790 _____P________ -1 -31.4801 50.5498 99 13 134
1980056S15059 1980 20 SI MM KOLIA 1980-03-16 00:00:00 NR -31.9000 51.1000 reunion main 857 857 _____O________ -1 -31.9000 51.1000 99 9.90000 11 131
1980056S15059 1980 20 SI MM KOLIA 1980-03-16 03:00:00 NR -32.2276 51.5749 main 910 910 _____P________ -1 -32.2276 51.5749 99 10 128
1980056S15059 1980 20 SI MM KOLIA 1980-03-16 06:00:00 TS -32.5000 52.0000 reunion main 958 _____O________ -1 -32.5000 52.0000 6 9.90000 9 127

About IBTrACS Database

This database is a web-friendly format of International Best Track Archive for Climate Stewardship (IBTrACS), a global best track data archive curated by NOAA dating back to 1842.

Updated: 2021-10-08